createdAt,value
2022-09-25T00:01:30.199Z,5.08
2022-09-25T00:03:58.717Z,5.15
2022-09-25T00:06:28.443Z,5.09
2022-09-25T00:08:57.904Z,5.09
2022-09-25T00:11:32.896Z,5.09
2022-09-25T00:14:02.457Z,5.07
2022-09-25T00:16:32.948Z,5.04
2022-09-25T00:19:20.295Z,5.01
2022-09-25T00:21:53.156Z,4.98
2022-09-25T00:24:21.378Z,4.87
2022-09-25T00:26:50.082Z,4.78
2022-09-25T00:29:20.843Z,4.75
2022-09-25T00:31:49.562Z,4.72
2022-09-25T00:34:17.975Z,4.70
2022-09-25T00:36:46.300Z,4.68
2022-09-25T00:39:14.331Z,4.61
2022-09-25T00:41:42.953Z,4.56
2022-09-25T00:44:48.971Z,4.50
2022-09-25T00:47:21.794Z,4.43
2022-09-25T00:49:50.790Z,4.38
2022-09-25T00:52:19.868Z,4.34
2022-09-25T00:55:00.389Z,4.35
2022-09-25T00:57:32.549Z,4.27
2022-09-25T01:00:07.645Z,4.19
2022-09-25T01:02:40.177Z,4.20
2022-09-25T01:05:15.970Z,4.20
2022-09-25T01:07:46.610Z,4.17
2022-09-25T01:10:15.961Z,4.15
2022-09-25T01:12:46.515Z,4.10
2022-09-25T01:15:19.285Z,4.05
2022-09-25T01:18:09.474Z,3.96
2022-09-25T01:21:02.801Z,3.96
2022-09-25T01:24:01.822Z,3.98
2022-09-25T01:27:07.157Z,3.97
2022-09-25T01:29:38.262Z,3.96
2022-09-25T01:32:33.828Z,3.95
2022-09-25T01:35:52.844Z,3.92
2022-09-25T01:38:38.767Z,3.83
2022-09-25T01:41:13.524Z,3.80
2022-09-25T01:43:48.249Z,3.76
2022-09-25T01:46:24.751Z,3.76
2022-09-25T01:48:56.329Z,3.75
2022-09-25T01:51:31.093Z,3.71
2022-09-25T01:54:03.522Z,3.70
2022-09-25T01:56:37.214Z,3.61
2022-09-25T01:59:17.787Z,3.55
2022-09-25T02:01:47.227Z,3.54
2022-09-25T02:04:32.655Z,3.50
2022-09-25T02:07:05.522Z,3.45
2022-09-25T02:09:44.409Z,3.48
2022-09-25T02:12:15.703Z,3.43
2022-09-25T02:14:59.790Z,3.36
2022-09-25T02:17:57.714Z,3.35
2022-09-25T02:20:32.368Z,3.34
2022-09-25T02:23:23.755Z,3.33
2022-09-25T02:25:57.074Z,3.35
2022-09-25T02:28:25.194Z,3.29
2022-09-25T02:30:56.119Z,3.27
2022-09-25T02:33:25.425Z,3.24
2022-09-25T02:35:54.087Z,3.20
2022-09-25T02:38:22.416Z,3.13
2022-09-25T02:41:18.031Z,3.18
2022-09-25T02:44:24.046Z,3.13
2022-09-25T02:47:14.286Z,3.18
2022-09-25T02:49:52.552Z,3.16
2022-09-25T02:52:53.870Z,3.12
2022-09-25T02:55:34.258Z,3.10
2022-09-25T02:58:17.969Z,3.02
2022-09-25T03:00:49.509Z,3.05
2022-09-25T03:03:19.892Z,3.03
2022-09-25T03:05:49.493Z,3.04
2022-09-25T03:08:36.830Z,3.01
2022-09-25T03:11:07.528Z,2.94
2022-09-25T03:13:36.385Z,2.95
2022-09-25T03:16:07.749Z,2.96
2022-09-25T03:18:36.547Z,2.94
2022-09-25T03:21:06.036Z,2.91
2022-09-25T03:23:34.847Z,2.91
2022-09-25T03:26:04.639Z,2.90
2022-09-25T03:28:33.004Z,2.87
2022-09-25T03:31:06.914Z,2.84
2022-09-25T03:33:40.484Z,2.81
2022-09-25T03:36:14.780Z,2.77
2022-09-25T03:38:43.651Z,2.74
2022-09-25T03:41:13.194Z,2.71
2022-09-25T03:43:43.744Z,2.70
2022-09-25T03:46:14.056Z,2.70
2022-09-25T03:48:42.932Z,2.70
2022-09-25T03:51:11.442Z,2.69
2022-09-25T03:53:40.260Z,2.71
2022-09-25T03:56:11.855Z,2.68
2022-09-25T03:58:41.405Z,2.64
2022-09-25T04:01:11.142Z,2.59
2022-09-25T04:03:40.108Z,2.55
2022-09-25T04:06:09.144Z,2.58
2022-09-25T04:08:37.704Z,2.60
2022-09-25T04:11:05.969Z,2.62
2022-09-25T04:13:42.030Z,2.63
2022-09-25T04:16:11.655Z,2.62
2022-09-25T04:18:42.460Z,2.61
2022-09-25T04:21:12.745Z,2.61
2022-09-25T04:23:41.599Z,2.61
2022-09-25T04:26:10.676Z,2.61
2022-09-25T04:28:39.154Z,2.61
2022-09-25T04:31:07.530Z,2.60
2022-09-25T04:33:47.736Z,2.57
2022-09-25T04:36:19.265Z,2.54
2022-09-25T04:38:48.486Z,2.55
2022-09-25T04:41:20.221Z,2.57
2022-09-25T04:43:48.682Z,2.59
2022-09-25T04:46:21.811Z,2.65
2022-09-25T04:48:50.961Z,2.73
2022-09-25T04:51:18.874Z,2.87
2022-09-25T04:53:47.034Z,2.97
2022-09-25T04:56:16.751Z,3.05
2022-09-25T04:58:46.653Z,3.19
2022-09-25T05:01:15.202Z,3.21
2022-09-25T05:03:43.710Z,3.32
2022-09-25T05:06:12.081Z,3.40
2022-09-25T05:08:39.765Z,3.59
2022-09-25T05:11:08.491Z,3.73
2022-09-25T05:13:37.119Z,4.06
2022-09-25T05:16:05.481Z,4.29
2022-09-25T05:18:34.180Z,4.54
2022-09-25T05:21:05.486Z,4.71
2022-09-25T05:23:33.226Z,4.80
2022-09-25T05:26:02.921Z,4.90
2022-09-25T05:28:32.558Z,5.11
2022-09-25T05:31:04.376Z,5.36
2022-09-25T05:33:34.457Z,5.55
2022-09-25T05:36:06.271Z,5.72
2022-09-25T05:38:36.739Z,5.88
2022-09-25T05:41:07.115Z,6.10
2022-09-25T05:43:40.751Z,6.23
2022-09-25T05:46:10.601Z,6.47
2022-09-25T05:48:39.127Z,6.75
2022-09-25T05:51:07.577Z,7.04
2022-09-25T05:53:35.291Z,7.29
2022-09-25T05:56:05.822Z,7.43
2022-09-25T05:58:35.589Z,7.62
2022-09-25T06:01:07.097Z,7.80
2022-09-25T06:03:36.595Z,8.09
2022-09-25T06:06:06.193Z,8.41
2022-09-25T06:08:38.040Z,8.77
2022-09-25T06:11:06.783Z,9.21
2022-09-25T06:13:37.338Z,9.44
2022-09-25T06:16:12.433Z,9.78
2022-09-25T06:18:40.668Z,10.25
2022-09-25T06:21:09.551Z,10.35
2022-09-25T06:23:37.674Z,10.62
2022-09-25T06:26:10.498Z,10.73
2022-09-25T06:28:40.293Z,10.82
2022-09-25T06:31:09.258Z,10.98
2022-09-25T06:33:37.386Z,10.92
2022-09-25T06:36:06.469Z,11.04
2022-09-25T06:38:35.328Z,11.39
2022-09-25T06:41:04.045Z,11.43
2022-09-25T06:43:32.531Z,11.49
2022-09-25T06:46:05.149Z,11.50
2022-09-25T06:48:33.716Z,11.40
2022-09-25T06:51:02.312Z,11.40
2022-09-25T06:53:31.074Z,11.52
2022-09-25T06:56:00.533Z,11.66
2022-09-25T06:58:30.689Z,11.87
2022-09-25T07:00:59.752Z,12.03
2022-09-25T07:03:47.337Z,12.05
2022-09-25T07:06:22.656Z,12.02
2022-09-25T07:08:52.336Z,12.08
2022-09-25T07:11:24.730Z,12.36
2022-09-25T07:13:55.596Z,12.62
2022-09-25T07:16:27.754Z,12.75
2022-09-25T07:18:57.815Z,13.00
2022-09-25T07:21:28.393Z,13.03
2022-09-25T07:23:59.003Z,13.13
2022-09-25T07:26:29.650Z,13.35
2022-09-25T07:29:00.784Z,13.30
2022-09-25T07:31:32.021Z,13.43
2022-09-25T07:34:03.201Z,13.56
2022-09-25T07:36:32.029Z,13.89
2022-09-25T07:39:00.481Z,14.17
2022-09-25T07:41:29.330Z,14.16
2022-09-25T07:44:18.158Z,14.25
2022-09-25T07:46:47.758Z,14.27
2022-09-25T07:49:16.266Z,14.18
2022-09-25T07:51:44.490Z,14.35
2022-09-25T07:54:13.550Z,14.62
2022-09-25T07:56:42.183Z,14.42
2022-09-25T07:59:09.964Z,14.45
2022-09-25T08:01:43.652Z,14.77
2022-09-25T08:04:14.626Z,15.05
2022-09-25T08:06:43.381Z,15.45
2022-09-25T08:09:12.360Z,15.68
2022-09-25T08:11:40.678Z,15.82
2022-09-25T08:14:08.581Z,16.07
2022-09-25T08:16:37.004Z,16.11
2022-09-25T08:19:05.583Z,16.32
2022-09-25T08:21:34.525Z,16.50
2022-09-25T08:24:02.928Z,16.68
2022-09-25T08:26:32.291Z,16.55
2022-09-25T08:29:01.152Z,16.15
2022-09-25T08:31:29.805Z,16.14
2022-09-25T08:34:09.926Z,16.40
2022-09-25T08:36:50.286Z,16.63
2022-09-25T08:39:19.033Z,16.37
2022-09-25T08:41:47.897Z,16.34
2022-09-25T08:44:19.302Z,16.34
2022-09-25T08:47:28.518Z,16.30
2022-09-25T08:50:14.736Z,16.40
2022-09-25T08:52:46.372Z,16.66
2022-09-25T08:55:24.654Z,16.90
2022-09-25T08:57:55.930Z,17.02
2022-09-25T09:00:24.547Z,17.03
2022-09-25T09:02:55.740Z,17.01
2022-09-25T09:05:35.562Z,16.73
2022-09-25T09:08:08.431Z,16.48
2022-09-25T09:10:41.881Z,16.29
2022-09-25T09:13:21.410Z,16.31
2022-09-25T09:15:50.231Z,16.17
2022-09-25T09:18:26.601Z,16.20
2022-09-25T09:20:58.419Z,16.45
2022-09-25T09:23:36.791Z,16.57
2022-09-25T09:26:11.314Z,16.64
2022-09-25T09:29:00.479Z,16.68
2022-09-25T09:31:53.741Z,16.68
2022-09-25T09:35:01.095Z,16.85
2022-09-25T09:37:58.823Z,16.84
2022-09-25T09:40:36.669Z,16.83
2022-09-25T09:43:29.591Z,16.86
2022-09-25T09:46:06.491Z,16.88
2022-09-25T09:48:41.844Z,16.92
2022-09-25T09:51:14.341Z,17.02
2022-09-25T09:53:54.953Z,17.11
2022-09-25T09:56:26.308Z,17.35
2022-09-25T09:59:14.554Z,17.39
2022-09-25T10:01:43.402Z,17.24
2022-09-25T10:04:15.168Z,17.11
2022-09-25T10:07:07.001Z,16.83
2022-09-25T10:09:36.889Z,16.81
2022-09-25T10:12:27.811Z,17.12
2022-09-25T10:14:56.706Z,17.25
2022-09-25T10:17:25.012Z,17.17
2022-09-25T10:19:59.089Z,16.92
2022-09-25T10:22:39.222Z,16.91
2022-09-25T10:25:07.522Z,17.03
2022-09-25T10:27:38.755Z,17.02
2022-09-25T10:30:12.488Z,16.98
2022-09-25T10:32:44.018Z,16.97
2022-09-25T10:35:19.629Z,17.21
2022-09-25T10:37:59.163Z,17.21
2022-09-25T10:40:35.868Z,17.23
2022-09-25T10:43:05.419Z,17.37
2022-09-25T10:45:36.006Z,17.53
2022-09-25T10:48:47.856Z,17.44
2022-09-25T10:51:21.506Z,17.48
2022-09-25T10:53:53.195Z,17.55
2022-09-25T10:56:24.586Z,17.63
2022-09-25T10:59:02.059Z,17.75
2022-09-25T11:01:36.941Z,17.74
2022-09-25T11:04:12.321Z,17.82
2022-09-25T11:06:46.615Z,17.68
2022-09-25T11:09:15.901Z,17.58
2022-09-25T11:11:46.638Z,17.60
2022-09-25T11:14:22.142Z,17.43
2022-09-25T11:16:54.582Z,17.46
2022-09-25T11:19:37.123Z,17.47
2022-09-25T11:22:26.215Z,17.45
2022-09-25T11:25:01.663Z,17.59
2022-09-25T11:28:24.847Z,17.72
2022-09-25T11:31:18.889Z,17.61
2022-09-25T11:34:04.041Z,17.53
2022-09-25T11:36:44.178Z,17.68
2022-09-25T11:40:02.453Z,17.50
2022-09-25T11:42:36.959Z,17.69
2022-09-25T11:45:15.452Z,17.77
2022-09-25T11:47:54.914Z,17.92
2022-09-25T11:50:38.433Z,17.91
2022-09-25T11:53:24.697Z,17.54
2022-09-25T11:56:13.147Z,17.55
2022-09-25T11:58:46.753Z,17.61
2022-09-25T12:01:36.746Z,17.65
2022-09-25T12:04:27.995Z,17.62
2022-09-25T12:07:14.728Z,17.62
2022-09-25T12:10:04.596Z,17.69
2022-09-25T12:13:05.724Z,17.56
2022-09-25T12:15:53.192Z,17.56
2022-09-25T12:18:44.343Z,17.62
2022-09-25T12:21:21.580Z,17.63
2022-09-25T12:24:18.425Z,17.56
2022-09-25T12:27:24.391Z,17.68
2022-09-25T12:30:16.474Z,17.81
2022-09-25T12:32:44.779Z,17.91
2022-09-25T12:35:43.950Z,18.09
2022-09-25T12:38:41.075Z,17.94
2022-09-25T12:41:19.074Z,18.05
2022-09-25T12:44:05.022Z,17.64
2022-09-25T12:46:41.530Z,17.71
2022-09-25T12:49:18.143Z,17.54
2022-09-25T12:51:51.129Z,17.48
2022-09-25T12:54:45.945Z,17.50
2022-09-25T12:57:34.952Z,17.57
2022-09-25T13:00:10.722Z,17.66
2022-09-25T13:02:44.381Z,17.90
2022-09-25T13:05:31.550Z,17.79
2022-09-25T13:08:07.910Z,17.68
2022-09-25T13:10:41.790Z,17.62
2022-09-25T13:13:20.618Z,17.58
2022-09-25T13:15:58.444Z,17.58
2022-09-25T13:18:29.776Z,17.66
2022-09-25T13:21:25.240Z,17.79
2022-09-25T13:23:54.576Z,17.66
2022-09-25T13:26:25.347Z,17.74
2022-09-25T13:28:57.735Z,17.76
2022-09-25T13:31:31.270Z,17.72
2022-09-25T13:34:02.415Z,17.67
2022-09-25T13:36:46.845Z,17.50
2022-09-25T13:39:36.340Z,17.37
2022-09-25T13:42:29.916Z,17.28
2022-09-25T13:45:18.620Z,17.32
2022-09-25T13:47:57.491Z,17.30
2022-09-25T13:50:47.766Z,17.33
2022-09-25T13:53:21.768Z,17.34
2022-09-25T13:55:56.071Z,17.51
2022-09-25T13:58:26.194Z,17.56
2022-09-25T14:00:58.141Z,17.65
2022-09-25T14:03:30.846Z,17.54
2022-09-25T14:06:00.550Z,17.62
2022-09-25T14:08:32.153Z,17.67
2022-09-25T14:11:04.838Z,17.81
2022-09-25T14:13:34.293Z,17.84
2022-09-25T14:16:04.965Z,17.79
2022-09-25T14:18:39.794Z,17.70
2022-09-25T14:21:10.140Z,17.53
2022-09-25T14:23:53.694Z,17.58
2022-09-25T14:26:28.796Z,17.55
2022-09-25T14:28:58.474Z,17.53
2022-09-25T14:31:33.039Z,17.55
2022-09-25T14:34:38.854Z,17.51
2022-09-25T14:37:25.520Z,17.30
2022-09-25T14:40:11.834Z,17.23
2022-09-25T14:43:06.104Z,17.21
2022-09-25T14:45:40.381Z,17.12
2022-09-25T14:48:16.428Z,17.04
2022-09-25T14:50:48.701Z,16.91
2022-09-25T14:53:28.013Z,16.85
2022-09-25T14:55:57.157Z,16.81
2022-09-25T14:58:29.427Z,16.74
2022-09-25T15:01:10.999Z,16.70
2022-09-25T15:03:44.082Z,16.57
2022-09-25T15:06:16.168Z,16.57
2022-09-25T15:08:44.658Z,16.54
2022-09-25T15:11:18.145Z,16.52
2022-09-25T15:13:46.583Z,16.47
2022-09-25T15:16:43.812Z,16.40
2022-09-25T15:19:33.673Z,16.31
2022-09-25T15:22:02.294Z,16.18
2022-09-25T15:24:32.480Z,16.09
2022-09-25T15:27:07.029Z,15.91
2022-09-25T15:29:42.194Z,15.90
2022-09-25T15:32:39.910Z,15.86
2022-09-25T15:35:21.612Z,15.81
2022-09-25T15:37:50.315Z,15.80
2022-09-25T15:40:29.148Z,15.73
2022-09-25T15:42:57.569Z,15.70
2022-09-25T15:45:34.940Z,15.64
2022-09-25T15:48:09.626Z,15.59
2022-09-25T15:50:38.395Z,15.54
2022-09-25T15:53:06.599Z,15.45
2022-09-25T15:55:34.887Z,15.35
2022-09-25T15:58:11.150Z,15.29
2022-09-25T16:00:58.163Z,15.26
2022-09-25T16:03:48.728Z,15.15
2022-09-25T16:06:17.367Z,15.09
2022-09-25T16:08:45.884Z,14.99
2022-09-25T16:11:22.248Z,14.90
2022-09-25T16:14:12.687Z,14.80
2022-09-25T16:16:47.314Z,14.62
2022-09-25T16:19:28.663Z,14.50
2022-09-25T16:22:00.195Z,14.42
2022-09-25T16:24:29.941Z,14.38
2022-09-25T16:27:03.052Z,14.32
2022-09-25T16:29:37.700Z,14.24
2022-09-25T16:32:15.949Z,14.15
2022-09-25T16:34:56.399Z,14.06
2022-09-25T16:37:32.005Z,13.97
2022-09-25T16:40:19.234Z,13.87
2022-09-25T16:42:47.719Z,13.81
2022-09-25T16:45:16.335Z,13.80
2022-09-25T16:47:49.296Z,13.66
2022-09-25T16:50:20.785Z,13.59
2022-09-25T16:52:49.987Z,13.50
2022-09-25T16:55:29.433Z,13.43
2022-09-25T16:57:59.549Z,13.36
2022-09-25T17:00:30.183Z,13.26
2022-09-25T17:02:59.571Z,13.20
2022-09-25T17:05:30.488Z,13.14
2022-09-25T17:08:01.016Z,13.05
2022-09-25T17:10:32.110Z,13.01
2022-09-25T17:13:02.163Z,12.89
2022-09-25T17:15:35.709Z,12.77
2022-09-25T17:18:11.216Z,12.65
2022-09-25T17:20:39.172Z,12.55
2022-09-25T17:23:07.744Z,12.40
2022-09-25T17:26:00.252Z,12.43
2022-09-25T17:28:29.861Z,12.32
2022-09-25T17:30:58.233Z,12.17
2022-09-25T17:33:27.787Z,12.04
2022-09-25T17:36:04.023Z,11.74
2022-09-25T17:38:34.229Z,11.88
2022-09-25T17:41:06.040Z,11.73
2022-09-25T17:43:35.064Z,11.70
2022-09-25T17:46:03.600Z,11.67
2022-09-25T17:48:32.260Z,11.59
2022-09-25T17:51:02.306Z,11.48
2022-09-25T17:53:32.911Z,11.39
2022-09-25T17:56:02.148Z,11.31
2022-09-25T17:58:31.898Z,11.23
2022-09-25T18:01:01.569Z,11.19
2022-09-25T18:03:31.109Z,11.10
2022-09-25T18:05:59.550Z,11.00
2022-09-25T18:08:27.816Z,10.93
2022-09-25T18:11:01.586Z,10.87
2022-09-25T18:13:30.079Z,10.79
2022-09-25T18:15:59.759Z,10.73
2022-09-25T18:18:50.587Z,10.69
2022-09-25T18:21:37.804Z,10.64
2022-09-25T18:24:05.918Z,10.57
2022-09-25T18:26:34.833Z,10.55
2022-09-25T18:29:02.773Z,10.49
2022-09-25T18:31:31.004Z,10.43
2022-09-25T18:33:59.515Z,10.40
2022-09-25T18:36:29.247Z,10.36
2022-09-25T18:38:57.082Z,10.32
2022-09-25T18:41:25.419Z,10.26
2022-09-25T18:43:54.318Z,10.17
2022-09-25T18:46:22.259Z,10.15
2022-09-25T18:48:50.616Z,10.10
2022-09-25T18:51:18.937Z,10.07
2022-09-25T18:53:51.781Z,9.98
2022-09-25T18:56:21.755Z,9.92
2022-09-25T18:58:50.010Z,9.89
2022-09-25T19:01:18.797Z,9.85
2022-09-25T19:03:52.287Z,9.81
2022-09-25T19:06:20.760Z,9.73
2022-09-25T19:08:57.506Z,9.66
2022-09-25T19:11:27.104Z,9.63
2022-09-25T19:13:56.656Z,9.55
2022-09-25T19:16:25.378Z,9.40
2022-09-25T19:18:54.716Z,9.42
2022-09-25T19:21:23.329Z,9.38
2022-09-25T19:23:51.230Z,9.34
2022-09-25T19:26:28.615Z,9.26
2022-09-25T19:28:57.272Z,9.19
2022-09-25T19:31:26.425Z,9.13
2022-09-25T19:33:55.773Z,9.10
2022-09-25T19:36:32.341Z,9.04
2022-09-25T19:39:02.246Z,8.97
2022-09-25T19:41:34.473Z,8.89
2022-09-25T19:44:12.294Z,8.78
2022-09-25T19:46:46.438Z,8.74
2022-09-25T19:49:16.963Z,8.69
2022-09-25T19:51:45.632Z,8.65
2022-09-25T19:54:15.471Z,8.55
2022-09-25T19:56:43.765Z,8.49
2022-09-25T19:59:16.358Z,8.45
2022-09-25T20:01:45.134Z,8.38
2022-09-25T20:04:18.642Z,8.35
2022-09-25T20:06:47.744Z,8.31
2022-09-25T20:09:16.951Z,8.23
2022-09-25T20:11:46.454Z,8.18
2022-09-25T20:14:15.052Z,8.15
2022-09-25T20:16:42.928Z,8.10
2022-09-25T20:19:10.817Z,8.06
2022-09-25T20:21:42.003Z,7.97
2022-09-25T20:24:10.050Z,7.97
2022-09-25T20:26:39.405Z,7.92
2022-09-25T20:29:12.220Z,7.88
2022-09-25T20:31:42.943Z,7.86
2022-09-25T20:34:16.369Z,7.84
2022-09-25T20:36:45.825Z,7.77
2022-09-25T20:39:20.601Z,7.69
2022-09-25T20:41:50.247Z,7.65
2022-09-25T20:44:19.059Z,7.59
2022-09-25T20:46:47.443Z,7.56
2022-09-25T20:49:20.107Z,7.56
2022-09-25T20:51:48.739Z,7.51
2022-09-25T20:54:17.024Z,7.40
2022-09-25T20:56:45.733Z,7.39
2022-09-25T20:59:16.782Z,7.40
2022-09-25T21:01:45.261Z,7.36
2022-09-25T21:04:14.747Z,7.31
2022-09-25T21:06:42.736Z,7.27
2022-09-25T21:09:21.250Z,7.24
2022-09-25T21:11:49.793Z,7.11
2022-09-25T21:14:23.264Z,7.15
2022-09-25T21:16:56.376Z,7.11
2022-09-25T21:19:24.817Z,7.04
2022-09-25T21:21:53.530Z,6.91
2022-09-25T21:24:22.182Z,6.95
2022-09-25T21:26:51.444Z,6.94
2022-09-25T21:29:20.311Z,6.90
2022-09-25T21:31:50.558Z,6.86
2022-09-25T21:34:20.299Z,6.85
2022-09-25T21:36:49.393Z,6.81
2022-09-25T21:39:19.104Z,6.77
2022-09-25T21:41:49.452Z,6.74
2022-09-25T21:44:20.817Z,6.71
2022-09-25T21:46:49.392Z,6.70
2022-09-25T21:49:20.379Z,6.67
2022-09-25T21:51:49.869Z,6.62
2022-09-25T21:54:18.889Z,6.59
2022-09-25T21:56:49.461Z,6.56
2022-09-25T21:59:17.800Z,6.49
2022-09-25T22:01:46.883Z,6.46
2022-09-25T22:04:16.080Z,6.43
2022-09-25T22:06:47.486Z,6.41
2022-09-25T22:09:22.042Z,6.39
2022-09-25T22:11:51.765Z,6.37
2022-09-25T22:14:21.390Z,6.27
2022-09-25T22:16:51.840Z,6.30
2022-09-25T22:19:24.381Z,6.22
2022-09-25T22:21:54.031Z,6.27
2022-09-25T22:24:22.815Z,6.25
2022-09-25T22:26:54.259Z,6.22
2022-09-25T22:29:23.704Z,6.19
2022-09-25T22:31:52.338Z,6.16
2022-09-25T22:34:27.978Z,6.15
2022-09-25T22:36:59.850Z,6.09
2022-09-25T22:39:29.766Z,6.07
2022-09-25T22:41:58.974Z,6.06
2022-09-25T22:44:27.439Z,6.02
2022-09-25T22:46:56.475Z,5.94
2022-09-25T22:49:25.298Z,5.92
2022-09-25T22:51:53.470Z,5.92
2022-09-25T22:54:21.602Z,5.90
2022-09-25T22:56:49.959Z,5.84
2022-09-25T22:59:18.577Z,5.85
2022-09-25T23:01:53.097Z,5.84
2022-09-25T23:04:23.785Z,5.82
2022-09-25T23:06:52.318Z,5.73
2022-09-25T23:09:23.114Z,5.78
2022-09-25T23:11:51.550Z,5.75
2022-09-25T23:14:23.135Z,5.76
2022-09-25T23:16:53.643Z,5.72
2022-09-25T23:19:22.922Z,5.71
2022-09-25T23:21:55.137Z,5.70
2022-09-25T23:24:23.601Z,5.71
2022-09-25T23:26:52.224Z,5.67
2022-09-25T23:29:21.906Z,5.68
2022-09-25T23:31:50.786Z,5.67
2022-09-25T23:34:20.145Z,5.61
2022-09-25T23:36:48.620Z,5.62
2022-09-25T23:39:19.385Z,5.61
2022-09-25T23:41:48.256Z,5.61
2022-09-25T23:44:16.459Z,5.57
2022-09-25T23:46:45.265Z,5.58
2022-09-25T23:49:15.090Z,5.55
2022-09-25T23:51:43.759Z,5.57
2022-09-25T23:54:13.057Z,5.56
2022-09-25T23:56:41.903Z,5.51
2022-09-25T23:59:12.354Z,5.50
